JFK weather

John F Kennedy International Airport
New York, New York, United States

Public forecast

Using degrees Fahrenheit for public forecast. Weather courtesy of forecast.io.

METAR (pilot weather report)

Retrieved 2018/05/23 05:51 UTC (54 minutes ago):

KJFK 230551Z 00000KT 10SM BKN007 OVC014 14/14 A2994 RMK AO2 SLP139 60001 T01440144 10144 20139 56019

TAF (pilot weather forecast)

Retrieved 2018/05/23 06:07 UTC (38 minutes ago):

TAF KJFK 230558Z 2306/2412 VRB03KT P6SM VCSH OVC008 TEMPO 2306/2309 3SM -SHRA BR OVC005 FM231100 29005KT P6SM BKN010 FM231300 30006KT P6SM SCT025 SCT060 FM231500 32010KT P6SM SCT060 FM232300 28008KT P6SM FEW250 FM240300 31008KT P6SM SKC FM241100 34006KT P6SM SKC